sensor_id;sensor_type;location;lat;lon;timestamp;temperature;humidity
36424;DHT22;22458;45.328;9.514;2023-05-13T00:01:17;16.10;92.60
36424;DHT22;22458;45.328;9.514;2023-05-13T00:03:43;16.10;92.60
36424;DHT22;22458;45.328;9.514;2023-05-13T00:06:09;16.10;92.60
36424;DHT22;22458;45.328;9.514;2023-05-13T00:08:34;16.10;92.60
36424;DHT22;22458;45.328;9.514;2023-05-13T00:11:00;16.10;92.60
36424;DHT22;22458;45.328;9.514;2023-05-13T00:13:26;16.10;92.70
36424;DHT22;22458;45.328;9.514;2023-05-13T00:15:52;16.00;92.80
36424;DHT22;22458;45.328;9.514;2023-05-13T00:18:18;16.00;92.80
36424;DHT22;22458;45.328;9.514;2023-05-13T00:20:44;16.00;92.80
36424;DHT22;22458;45.328;9.514;2023-05-13T00:23:09;16.00;92.80
36424;DHT22;22458;45.328;9.514;2023-05-13T00:25:36;16.00;92.80
36424;DHT22;22458;45.328;9.514;2023-05-13T00:28:02;16.00;92.80
36424;DHT22;22458;45.328;9.514;2023-05-13T00:30:28;16.00;92.70
36424;DHT22;22458;45.328;9.514;2023-05-13T00:32:54;16.00;92.70
36424;DHT22;22458;45.328;9.514;2023-05-13T00:35:20;16.10;92.80
36424;DHT22;22458;45.328;9.514;2023-05-13T00:37:46;16.00;92.80
36424;DHT22;22458;45.328;9.514;2023-05-13T00:40:18;16.00;92.80
36424;DHT22;22458;45.328;9.514;2023-05-13T00:42:45;16.00;92.80
36424;DHT22;22458;45.328;9.514;2023-05-13T00:45:11;16.00;92.80
36424;DHT22;22458;45.328;9.514;2023-05-13T00:47:41;16.00;92.80
36424;DHT22;22458;45.328;9.514;2023-05-13T00:50:11;16.00;92.80
36424;DHT22;22458;45.328;9.514;2023-05-13T00:52:38;16.00;92.80
36424;DHT22;22458;45.328;9.514;2023-05-13T00:55:08;16.00;92.70
36424;DHT22;22458;45.328;9.514;2023-05-13T00:57:35;16.00;92.70
36424;DHT22;22458;45.328;9.514;2023-05-13T01:00:02;16.00;92.70
36424;DHT22;22458;45.328;9.514;2023-05-13T01:05:56;16.00;92.70
36424;DHT22;22458;45.328;9.514;2023-05-13T01:11:20;15.90;92.70
36424;DHT22;22458;45.328;9.514;2023-05-13T01:13:48;15.90;92.70
36424;DHT22;22458;45.328;9.514;2023-05-13T01:16:25;15.90;92.70
36424;DHT22;22458;45.328;9.514;2023-05-13T01:18:59;15.90;92.60
36424;DHT22;22458;45.328;9.514;2023-05-13T01:21:27;16.00;92.60
36424;DHT22;22458;45.328;9.514;2023-05-13T01:23:53;15.90;92.60
36424;DHT22;22458;45.328;9.514;2023-05-13T01:26:21;15.90;92.70
36424;DHT22;22458;45.328;9.514;2023-05-13T01:28:49;15.90;92.80
36424;DHT22;22458;45.328;9.514;2023-05-13T01:31:16;15.90;92.80
36424;DHT22;22458;45.328;9.514;2023-05-13T01:33:43;16.00;92.80
36424;DHT22;22458;45.328;9.514;2023-05-13T01:36:09;16.00;92.70
36424;DHT22;22458;45.328;9.514;2023-05-13T01:38:38;16.00;92.70
36424;DHT22;22458;45.328;9.514;2023-05-13T01:41:05;16.00;92.70
36424;DHT22;22458;45.328;9.514;2023-05-13T01:43:31;16.00;92.70
36424;DHT22;22458;45.328;9.514;2023-05-13T01:45:57;16.00;92.70
36424;DHT22;22458;45.328;9.514;2023-05-13T01:48:25;15.90;92.80
36424;DHT22;22458;45.328;9.514;2023-05-13T01:50:51;15.90;92.80
36424;DHT22;22458;45.328;9.514;2023-05-13T01:53:18;15.90;92.90
36424;DHT22;22458;45.328;9.514;2023-05-13T01:55:45;15.90;93.10
36424;DHT22;22458;45.328;9.514;2023-05-13T01:58:12;15.90;92.80
36424;DHT22;22458;45.328;9.514;2023-05-13T02:00:38;15.80;92.90
36424;DHT22;22458;45.328;9.514;2023-05-13T02:03:04;15.70;93.00
36424;DHT22;22458;45.328;9.514;2023-05-13T02:05:30;15.70;93.10
36424;DHT22;22458;45.328;9.514;2023-05-13T02:08:00;15.60;93.10
36424;DHT22;22458;45.328;9.514;2023-05-13T02:10:26;15.60;93.10
36424;DHT22;22458;45.328;9.514;2023-05-13T02:12:51;15.60;93.00
36424;DHT22;22458;45.328;9.514;2023-05-13T02:15:17;15.60;92.90
36424;DHT22;22458;45.328;9.514;2023-05-13T02:17:43;15.60;92.80
36424;DHT22;22458;45.328;9.514;2023-05-13T02:20:10;15.60;92.70
36424;DHT22;22458;45.328;9.514;2023-05-13T02:22:36;15.70;92.70
36424;DHT22;22458;45.328;9.514;2023-05-13T02:25:03;15.60;92.60
36424;DHT22;22458;45.328;9.514;2023-05-13T02:27:28;15.60;92.60
36424;DHT22;22458;45.328;9.514;2023-05-13T02:29:54;15.60;92.60
36424;DHT22;22458;45.328;9.514;2023-05-13T02:32:20;15.60;92.60
36424;DHT22;22458;45.328;9.514;2023-05-13T02:34:46;15.60;92.50
36424;DHT22;22458;45.328;9.514;2023-05-13T02:37:12;15.60;92.50
36424;DHT22;22458;45.328;9.514;2023-05-13T02:39:46;15.50;92.50
36424;DHT22;22458;45.328;9.514;2023-05-13T02:42:12;15.50;92.50
36424;DHT22;22458;45.328;9.514;2023-05-13T02:44:38;15.50;92.50
36424;DHT22;22458;45.328;9.514;2023-05-13T02:47:05;15.50;92.50
36424;DHT22;22458;45.328;9.514;2023-05-13T02:49:31;15.40;92.60
36424;DHT22;22458;45.328;9.514;2023-05-13T02:51:56;15.40;92.60
36424;DHT22;22458;45.328;9.514;2023-05-13T02:54:29;15.40;92.60
36424;DHT22;22458;45.328;9.514;2023-05-13T02:56:55;15.30;92.60
36424;DHT22;22458;45.328;9.514;2023-05-13T02:59:21;15.30;92.60
36424;DHT22;22458;45.328;9.514;2023-05-13T03:01:46;15.30;92.60
36424;DHT22;22458;45.328;9.514;2023-05-13T03:04:12;15.30;92.60
36424;DHT22;22458;45.328;9.514;2023-05-13T03:06:38;15.30;92.60
36424;DHT22;22458;45.328;9.514;2023-05-13T03:09:04;15.30;92.60
36424;DHT22;22458;45.328;9.514;2023-05-13T03:11:31;15.30;92.60
36424;DHT22;22458;45.328;9.514;2023-05-13T03:13:57;15.30;92.70
36424;DHT22;22458;45.328;9.514;2023-05-13T03:16:23;15.30;92.80
36424;DHT22;22458;45.328;9.514;2023-05-13T03:18:49;15.30;92.70
36424;DHT22;22458;45.328;9.514;2023-05-13T03:21:16;15.30;92.70
36424;DHT22;22458;45.328;9.514;2023-05-13T03:23:42;15.30;92.70
36424;DHT22;22458;45.328;9.514;2023-05-13T03:26:07;15.40;92.70
36424;DHT22;22458;45.328;9.514;2023-05-13T03:28:33;15.30;92.70
36424;DHT22;22458;45.328;9.514;2023-05-13T03:30:59;15.30;92.70
36424;DHT22;22458;45.328;9.514;2023-05-13T03:33:27;15.30;92.80
36424;DHT22;22458;45.328;9.514;2023-05-13T03:35:54;15.30;92.80
36424;DHT22;22458;45.328;9.514;2023-05-13T03:38:25;15.30;92.80
36424;DHT22;22458;45.328;9.514;2023-05-13T03:40:52;15.30;92.80
36424;DHT22;22458;45.328;9.514;2023-05-13T03:43:17;15.30;92.80
36424;DHT22;22458;45.328;9.514;2023-05-13T03:45:47;15.30;92.80
36424;DHT22;22458;45.328;9.514;2023-05-13T03:48:17;15.30;92.90
36424;DHT22;22458;45.328;9.514;2023-05-13T03:50:43;15.30;92.90
36424;DHT22;22458;45.328;9.514;2023-05-13T03:53:10;15.30;92.90
36424;DHT22;22458;45.328;9.514;2023-05-13T03:55:37;15.30;92.90
36424;DHT22;22458;45.328;9.514;2023-05-13T03:58:15;15.30;92.80
36424;DHT22;22458;45.328;9.514;2023-05-13T04:00:41;15.40;92.80
36424;DHT22;22458;45.328;9.514;2023-05-13T04:03:08;15.40;92.70
36424;DHT22;22458;45.328;9.514;2023-05-13T04:05:34;15.30;92.70
36424;DHT22;22458;45.328;9.514;2023-05-13T04:08:00;15.30;92.70
36424;DHT22;22458;45.328;9.514;2023-05-13T04:10:26;15.30;92.70
36424;DHT22;22458;45.328;9.514;2023-05-13T04:12:51;15.30;92.70
36424;DHT22;22458;45.328;9.514;2023-05-13T04:15:17;15.30;92.60
36424;DHT22;22458;45.328;9.514;2023-05-13T04:17:43;15.30;92.60
36424;DHT22;22458;45.328;9.514;2023-05-13T04:20:09;15.30;92.60
36424;DHT22;22458;45.328;9.514;2023-05-13T04:22:35;15.30;92.70
36424;DHT22;22458;45.328;9.514;2023-05-13T04:25:01;15.20;92.80
36424;DHT22;22458;45.328;9.514;2023-05-13T04:27:26;15.20;92.90
36424;DHT22;22458;45.328;9.514;2023-05-13T04:30:01;15.20;92.90
36424;DHT22;22458;45.328;9.514;2023-05-13T04:32:29;15.30;92.90
36424;DHT22;22458;45.328;9.514;2023-05-13T04:34:56;15.30;92.90
36424;DHT22;22458;45.328;9.514;2023-05-13T04:37:24;15.20;92.90
36424;DHT22;22458;45.328;9.514;2023-05-13T04:39:52;15.30;92.90
36424;DHT22;22458;45.328;9.514;2023-05-13T04:42:21;15.30;92.90
36424;DHT22;22458;45.328;9.514;2023-05-13T04:44:47;15.20;93.00
36424;DHT22;22458;45.328;9.514;2023-05-13T04:47:13;15.20;93.10
36424;DHT22;22458;45.328;9.514;2023-05-13T04:49:39;15.20;93.10
36424;DHT22;22458;45.328;9.514;2023-05-13T04:52:05;15.30;93.10
36424;DHT22;22458;45.328;9.514;2023-05-13T04:54:32;15.30;93.10
36424;DHT22;22458;45.328;9.514;2023-05-13T04:57:01;15.30;93.00
36424;DHT22;22458;45.328;9.514;2023-05-13T04:59:28;15.40;93.10
36424;DHT22;22458;45.328;9.514;2023-05-13T05:01:54;15.40;93.10
36424;DHT22;22458;45.328;9.514;2023-05-13T05:04:20;15.40;93.30
36424;DHT22;22458;45.328;9.514;2023-05-13T05:06:47;15.40;93.10
36424;DHT22;22458;45.328;9.514;2023-05-13T05:09:14;15.40;93.20
36424;DHT22;22458;45.328;9.514;2023-05-13T05:11:40;15.40;93.20
36424;DHT22;22458;45.328;9.514;2023-05-13T05:14:05;15.40;93.20
36424;DHT22;22458;45.328;9.514;2023-05-13T05:16:32;15.40;93.10
36424;DHT22;22458;45.328;9.514;2023-05-13T05:18:58;15.50;93.10
36424;DHT22;22458;45.328;9.514;2023-05-13T05:21:24;15.50;93.10
36424;DHT22;22458;45.328;9.514;2023-05-13T05:23:50;15.50;93.00
36424;DHT22;22458;45.328;9.514;2023-05-13T05:26:17;15.50;93.00
36424;DHT22;22458;45.328;9.514;2023-05-13T05:28:44;15.50;93.00
36424;DHT22;22458;45.328;9.514;2023-05-13T05:31:11;15.50;93.00
36424;DHT22;22458;45.328;9.514;2023-05-13T05:33:37;15.50;93.10
36424;DHT22;22458;45.328;9.514;2023-05-13T05:36:05;15.60;93.10
36424;DHT22;22458;45.328;9.514;2023-05-13T05:38:31;15.60;93.10
36424;DHT22;22458;45.328;9.514;2023-05-13T05:40:58;15.60;93.20
36424;DHT22;22458;45.328;9.514;2023-05-13T05:43:23;15.60;93.30
36424;DHT22;22458;45.328;9.514;2023-05-13T05:45:51;15.60;93.30
36424;DHT22;22458;45.328;9.514;2023-05-13T05:48:18;15.70;93.40
36424;DHT22;22458;45.328;9.514;2023-05-13T05:50:44;15.70;93.30
36424;DHT22;22458;45.328;9.514;2023-05-13T05:53:14;15.80;93.30
36424;DHT22;22458;45.328;9.514;2023-05-13T05:55:40;15.80;93.30
36424;DHT22;22458;45.328;9.514;2023-05-13T05:58:08;15.80;93.30
36424;DHT22;22458;45.328;9.514;2023-05-13T06:00:38;15.80;93.40
36424;DHT22;22458;45.328;9.514;2023-05-13T06:03:04;15.80;93.40
36424;DHT22;22458;45.328;9.514;2023-05-13T06:05:30;15.90;93.40
36424;DHT22;22458;45.328;9.514;2023-05-13T06:07:55;15.90;93.40
36424;DHT22;22458;45.328;9.514;2023-05-13T06:10:21;15.90;93.40
36424;DHT22;22458;45.328;9.514;2023-05-13T06:12:47;16.00;93.40
36424;DHT22;22458;45.328;9.514;2023-05-13T06:15:13;16.00;93.30
36424;DHT22;22458;45.328;9.514;2023-05-13T06:17:39;16.10;93.30
36424;DHT22;22458;45.328;9.514;2023-05-13T06:20:06;16.20;93.30
36424;DHT22;22458;45.328;9.514;2023-05-13T06:22:32;16.20;93.30
36424;DHT22;22458;45.328;9.514;2023-05-13T06:24:57;16.20;93.30
36424;DHT22;22458;45.328;9.514;2023-05-13T06:27:24;16.30;93.30
36424;DHT22;22458;45.328;9.514;2023-05-13T06:29:53;16.40;93.30
36424;DHT22;22458;45.328;9.514;2023-05-13T06:32:19;16.40;93.30
36424;DHT22;22458;45.328;9.514;2023-05-13T06:34:45;16.50;93.20
36424;DHT22;22458;45.328;9.514;2023-05-13T06:37:12;16.50;93.20
36424;DHT22;22458;45.328;9.514;2023-05-13T06:39:40;16.60;93.20
36424;DHT22;22458;45.328;9.514;2023-05-13T06:42:07;16.60;93.10
36424;DHT22;22458;45.328;9.514;2023-05-13T06:44:38;16.60;93.30
36424;DHT22;22458;45.328;9.514;2023-05-13T06:47:05;16.70;93.00
36424;DHT22;22458;45.328;9.514;2023-05-13T06:49:34;16.70;92.90
36424;DHT22;22458;45.328;9.514;2023-05-13T06:52:00;16.80;92.90
36424;DHT22;22458;45.328;9.514;2023-05-13T06:54:25;16.70;92.80
36424;DHT22;22458;45.328;9.514;2023-05-13T06:56:53;16.80;92.80
36424;DHT22;22458;45.328;9.514;2023-05-13T06:59:18;16.90;92.70
36424;DHT22;22458;45.328;9.514;2023-05-13T07:01:46;16.90;92.60
36424;DHT22;22458;45.328;9.514;2023-05-13T07:04:11;17.00;92.60
36424;DHT22;22458;45.328;9.514;2023-05-13T07:06:37;17.10;92.50
36424;DHT22;22458;45.328;9.514;2023-05-13T07:09:03;17.20;92.50
36424;DHT22;22458;45.328;9.514;2023-05-13T07:11:29;17.30;92.40
36424;DHT22;22458;45.328;9.514;2023-05-13T07:13:54;17.40;92.30
36424;DHT22;22458;45.328;9.514;2023-05-13T07:16:20;17.40;92.30
36424;DHT22;22458;45.328;9.514;2023-05-13T07:18:46;17.50;92.20
36424;DHT22;22458;45.328;9.514;2023-05-13T07:21:13;17.50;92.10
36424;DHT22;22458;45.328;9.514;2023-05-13T07:23:39;17.50;92.10
36424;DHT22;22458;45.328;9.514;2023-05-13T07:26:05;17.60;92.00
36424;DHT22;22458;45.328;9.514;2023-05-13T07:28:31;17.60;91.90
36424;DHT22;22458;45.328;9.514;2023-05-13T07:30:57;17.60;91.80
36424;DHT22;22458;45.328;9.514;2023-05-13T07:33:23;17.70;91.70
36424;DHT22;22458;45.328;9.514;2023-05-13T07:35:49;17.60;91.60
36424;DHT22;22458;45.328;9.514;2023-05-13T07:38:14;17.60;91.50
36424;DHT22;22458;45.328;9.514;2023-05-13T07:40:40;17.70;91.50
36424;DHT22;22458;45.328;9.514;2023-05-13T07:43:06;17.70;91.70
36424;DHT22;22458;45.328;9.514;2023-05-13T07:45:31;17.70;91.40
36424;DHT22;22458;45.328;9.514;2023-05-13T07:47:57;17.70;91.50
36424;DHT22;22458;45.328;9.514;2023-05-13T07:50:23;17.80;91.50
36424;DHT22;22458;45.328;9.514;2023-05-13T07:52:49;17.70;91.40
36424;DHT22;22458;45.328;9.514;2023-05-13T07:55:16;17.70;91.40
36424;DHT22;22458;45.328;9.514;2023-05-13T07:57:42;17.80;91.40
36424;DHT22;22458;45.328;9.514;2023-05-13T08:00:08;17.80;91.30
36424;DHT22;22458;45.328;9.514;2023-05-13T08:02:41;17.70;91.30
36424;DHT22;22458;45.328;9.514;2023-05-13T08:05:08;17.70;91.30
36424;DHT22;22458;45.328;9.514;2023-05-13T08:07:35;17.70;91.20
36424;DHT22;22458;45.328;9.514;2023-05-13T08:10:01;17.70;91.20
36424;DHT22;22458;45.328;9.514;2023-05-13T08:12:27;17.80;91.20
36424;DHT22;22458;45.328;9.514;2023-05-13T08:14:52;17.80;91.10
36424;DHT22;22458;45.328;9.514;2023-05-13T08:17:18;17.80;91.20
36424;DHT22;22458;45.328;9.514;2023-05-13T08:19:44;17.90;91.20
36424;DHT22;22458;45.328;9.514;2023-05-13T08:22:10;17.90;91.20
36424;DHT22;22458;45.328;9.514;2023-05-13T08:24:36;18.00;91.20
36424;DHT22;22458;45.328;9.514;2023-05-13T08:27:04;18.10;91.10
36424;DHT22;22458;45.328;9.514;2023-05-13T08:29:30;18.20;91.00
36424;DHT22;22458;45.328;9.514;2023-05-13T08:31:56;18.20;91.00
36424;DHT22;22458;45.328;9.514;2023-05-13T08:34:22;18.20;90.80
36424;DHT22;22458;45.328;9.514;2023-05-13T08:36:50;18.20;90.80
36424;DHT22;22458;45.328;9.514;2023-05-13T08:39:16;18.20;90.60
36424;DHT22;22458;45.328;9.514;2023-05-13T08:41:43;18.30;90.60
36424;DHT22;22458;45.328;9.514;2023-05-13T08:44:11;18.30;90.50
36424;DHT22;22458;45.328;9.514;2023-05-13T08:46:40;18.40;90.50
36424;DHT22;22458;45.328;9.514;2023-05-13T08:49:09;18.50;90.30
36424;DHT22;22458;45.328;9.514;2023-05-13T08:51:35;18.50;90.20
36424;DHT22;22458;45.328;9.514;2023-05-13T08:54:01;18.60;90.10
36424;DHT22;22458;45.328;9.514;2023-05-13T08:56:28;18.60;89.80
36424;DHT22;22458;45.328;9.514;2023-05-13T08:58:54;18.80;89.70
36424;DHT22;22458;45.328;9.514;2023-05-13T09:01:22;18.90;89.50
36424;DHT22;22458;45.328;9.514;2023-05-13T09:03:57;19.00;89.50
36424;DHT22;22458;45.328;9.514;2023-05-13T09:06:24;19.00;89.20
36424;DHT22;22458;45.328;9.514;2023-05-13T09:08:50;19.10;89.20
36424;DHT22;22458;45.328;9.514;2023-05-13T09:11:16;19.10;88.80
36424;DHT22;22458;45.328;9.514;2023-05-13T09:13:43;19.20;88.60
36424;DHT22;22458;45.328;9.514;2023-05-13T09:16:10;19.40;88.30
36424;DHT22;22458;45.328;9.514;2023-05-13T09:18:38;19.50;87.60
36424;DHT22;22458;45.328;9.514;2023-05-13T09:21:23;19.60;86.90
36424;DHT22;22458;45.328;9.514;2023-05-13T09:23:51;19.70;86.20
36424;DHT22;22458;45.328;9.514;2023-05-13T09:26:29;19.80;86.20
36424;DHT22;22458;45.328;9.514;2023-05-13T09:29:14;20.00;85.70
36424;DHT22;22458;45.328;9.514;2023-05-13T09:31:41;20.10;85.30
36424;DHT22;22458;45.328;9.514;2023-05-13T09:34:07;20.20;85.00
36424;DHT22;22458;45.328;9.514;2023-05-13T09:36:33;20.20;84.50
36424;DHT22;22458;45.328;9.514;2023-05-13T09:38:58;20.30;84.30
36424;DHT22;22458;45.328;9.514;2023-05-13T09:41:29;20.50;83.90
36424;DHT22;22458;45.328;9.514;2023-05-13T09:43:57;20.50;83.00
36424;DHT22;22458;45.328;9.514;2023-05-13T09:46:23;20.50;82.70
36424;DHT22;22458;45.328;9.514;2023-05-13T09:48:49;20.50;82.70
36424;DHT22;22458;45.328;9.514;2023-05-13T09:51:27;20.50;82.90
36424;DHT22;22458;45.328;9.514;2023-05-13T09:54:04;20.60;82.50
36424;DHT22;22458;45.328;9.514;2023-05-13T09:56:33;20.70;82.30
36424;DHT22;22458;45.328;9.514;2023-05-13T09:59:00;20.70;82.10
36424;DHT22;22458;45.328;9.514;2023-05-13T10:01:27;20.70;81.80
36424;DHT22;22458;45.328;9.514;2023-05-13T10:03:54;20.60;82.00
36424;DHT22;22458;45.328;9.514;2023-05-13T10:06:25;20.60;81.20
36424;DHT22;22458;45.328;9.514;2023-05-13T10:08:54;20.60;80.90
36424;DHT22;22458;45.328;9.514;2023-05-13T10:11:23;20.70;80.80
36424;DHT22;22458;45.328;9.514;2023-05-13T10:13:51;20.80;80.70
36424;DHT22;22458;45.328;9.514;2023-05-13T10:16:21;21.00;80.40
36424;DHT22;22458;45.328;9.514;2023-05-13T10:18:47;21.10;79.70
36424;DHT22;22458;45.328;9.514;2023-05-13T10:21:13;21.20;79.50
36424;DHT22;22458;45.328;9.514;2023-05-13T10:23:39;21.40;79.10
36424;DHT22;22458;45.328;9.514;2023-05-13T10:26:05;21.50;78.50
36424;DHT22;22458;45.328;9.514;2023-05-13T10:28:32;21.60;77.90
36424;DHT22;22458;45.328;9.514;2023-05-13T10:30:58;21.80;77.60
36424;DHT22;22458;45.328;9.514;2023-05-13T10:33:25;21.90;77.20
36424;DHT22;22458;45.328;9.514;2023-05-13T10:39:05;22.00;75.70
36424;DHT22;22458;45.328;9.514;2023-05-13T10:42:07;21.90;75.30
36424;DHT22;22458;45.328;9.514;2023-05-13T10:44:42;21.80;75.50
36424;DHT22;22458;45.328;9.514;2023-05-13T10:47:08;21.90;75.60
36424;DHT22;22458;45.328;9.514;2023-05-13T10:49:35;21.90;74.80
36424;DHT22;22458;45.328;9.514;2023-05-13T10:52:05;22.00;74.60
36424;DHT22;22458;45.328;9.514;2023-05-13T10:54:38;22.10;74.40
36424;DHT22;22458;45.328;9.514;2023-05-13T10:57:05;22.20;74.20
36424;DHT22;22458;45.328;9.514;2023-05-13T10:59:31;22.30;74.20
36424;DHT22;22458;45.328;9.514;2023-05-13T11:02:22;22.50;74.10
36424;DHT22;22458;45.328;9.514;2023-05-13T11:04:58;22.60;73.90
36424;DHT22;22458;45.328;9.514;2023-05-13T11:07:29;22.60;73.80
36424;DHT22;22458;45.328;9.514;2023-05-13T11:09:55;22.60;73.70
36424;DHT22;22458;45.328;9.514;2023-05-13T11:12:21;22.70;73.30
36424;DHT22;22458;45.328;9.514;2023-05-13T11:14:47;22.80;72.70
36424;DHT22;22458;45.328;9.514;2023-05-13T11:17:17;23.00;72.20
36424;DHT22;22458;45.328;9.514;2023-05-13T11:19:45;23.00;71.50
36424;DHT22;22458;45.328;9.514;2023-05-13T11:22:19;23.10;70.70
36424;DHT22;22458;45.328;9.514;2023-05-13T11:25:05;23.10;69.80
36424;DHT22;22458;45.328;9.514;2023-05-13T11:27:36;23.00;69.70
36424;DHT22;22458;45.328;9.514;2023-05-13T11:30:06;22.90;69.60
36424;DHT22;22458;45.328;9.514;2023-05-13T11:35:25;22.70;69.20
36424;DHT22;22458;45.328;9.514;2023-05-13T11:37:51;22.70;69.10
36424;DHT22;22458;45.328;9.514;2023-05-13T11:40:25;22.60;69.20
36424;DHT22;22458;45.328;9.514;2023-05-13T11:42:52;22.70;69.20
36424;DHT22;22458;45.328;9.514;2023-05-13T11:45:19;22.80;69.10
36424;DHT22;22458;45.328;9.514;2023-05-13T11:47:45;22.90;69.10
36424;DHT22;22458;45.328;9.514;2023-05-13T11:50:40;23.10;69.80
36424;DHT22;22458;45.328;9.514;2023-05-13T11:53:06;23.30;69.30
36424;DHT22;22458;45.328;9.514;2023-05-13T11:55:33;23.40;69.20
36424;DHT22;22458;45.328;9.514;2023-05-13T11:58:03;23.50;68.80
36424;DHT22;22458;45.328;9.514;2023-05-13T12:00:33;23.50;68.60
36424;DHT22;22458;45.328;9.514;2023-05-13T12:03:01;23.50;67.90
36424;DHT22;22458;45.328;9.514;2023-05-13T12:05:27;23.40;68.00
36424;DHT22;22458;45.328;9.514;2023-05-13T12:07:56;23.40;67.80
36424;DHT22;22458;45.328;9.514;2023-05-13T12:10:22;23.40;67.70
36424;DHT22;22458;45.328;9.514;2023-05-13T12:12:49;23.30;68.30
36424;DHT22;22458;45.328;9.514;2023-05-13T12:15:17;23.20;68.00
36424;DHT22;22458;45.328;9.514;2023-05-13T12:17:43;23.10;67.70
36424;DHT22;22458;45.328;9.514;2023-05-13T12:20:11;22.90;67.60
36424;DHT22;22458;45.328;9.514;2023-05-13T12:30:36;23.10;66.90
36424;DHT22;22458;45.328;9.514;2023-05-13T12:33:02;23.20;66.90
36424;DHT22;22458;45.328;9.514;2023-05-13T12:35:32;23.20;66.50
36424;DHT22;22458;45.328;9.514;2023-05-13T12:38:03;23.30;66.00
36424;DHT22;22458;45.328;9.514;2023-05-13T12:40:29;23.40;65.60
36424;DHT22;22458;45.328;9.514;2023-05-13T12:42:59;23.50;65.30
36424;DHT22;22458;45.328;9.514;2023-05-13T12:45:30;23.40;64.70
36424;DHT22;22458;45.328;9.514;2023-05-13T12:47:56;23.30;64.30
36424;DHT22;22458;45.328;9.514;2023-05-13T12:50:22;23.20;64.40
36424;DHT22;22458;45.328;9.514;2023-05-13T12:52:48;23.20;64.50
36424;DHT22;22458;45.328;9.514;2023-05-13T12:55:14;23.20;64.70
36424;DHT22;22458;45.328;9.514;2023-05-13T12:57:41;23.10;64.80
36424;DHT22;22458;45.328;9.514;2023-05-13T13:00:08;23.10;65.00
36424;DHT22;22458;45.328;9.514;2023-05-13T13:02:40;23.00;65.10
36424;DHT22;22458;45.328;9.514;2023-05-13T13:05:06;23.10;64.80
36424;DHT22;22458;45.328;9.514;2023-05-13T13:07:32;23.20;64.70
36424;DHT22;22458;45.328;9.514;2023-05-13T13:09:57;23.40;64.10
36424;DHT22;22458;45.328;9.514;2023-05-13T13:12:23;23.40;63.70
36424;DHT22;22458;45.328;9.514;2023-05-13T13:14:49;23.50;63.30
36424;DHT22;22458;45.328;9.514;2023-05-13T13:17:15;23.70;63.10
36424;DHT22;22458;45.328;9.514;2023-05-13T13:19:41;23.80;62.80
36424;DHT22;22458;45.328;9.514;2023-05-13T13:22:07;24.00;62.60
36424;DHT22;22458;45.328;9.514;2023-05-13T13:24:32;24.20;62.00
36424;DHT22;22458;45.328;9.514;2023-05-13T13:26:58;24.20;61.90
36424;DHT22;22458;45.328;9.514;2023-05-13T13:29:24;24.20;61.70
36424;DHT22;22458;45.328;9.514;2023-05-13T13:31:49;24.30;61.40
36424;DHT22;22458;45.328;9.514;2023-05-13T13:34:16;24.30;61.30
36424;DHT22;22458;45.328;9.514;2023-05-13T13:36:42;24.30;60.80
36424;DHT22;22458;45.328;9.514;2023-05-13T13:39:07;24.20;60.70
36424;DHT22;22458;45.328;9.514;2023-05-13T13:41:33;24.30;60.70
36424;DHT22;22458;45.328;9.514;2023-05-13T13:43:59;24.50;60.00
36424;DHT22;22458;45.328;9.514;2023-05-13T13:46:25;24.70;59.60
36424;DHT22;22458;45.328;9.514;2023-05-13T13:48:50;24.70;59.10
36424;DHT22;22458;45.328;9.514;2023-05-13T13:51:16;24.70;58.70
36424;DHT22;22458;45.328;9.514;2023-05-13T13:53:42;24.70;58.90
36424;DHT22;22458;45.328;9.514;2023-05-13T13:56:07;24.80;59.00
36424;DHT22;22458;45.328;9.514;2023-05-13T13:58:33;25.00;59.10
36424;DHT22;22458;45.328;9.514;2023-05-13T14:00:59;25.10;59.00
36424;DHT22;22458;45.328;9.514;2023-05-13T14:03:25;25.20;58.80
36424;DHT22;22458;45.328;9.514;2023-05-13T14:05:50;25.30;58.40
36424;DHT22;22458;45.328;9.514;2023-05-13T14:08:18;25.30;58.30
36424;DHT22;22458;45.328;9.514;2023-05-13T14:10:44;25.50;58.00
36424;DHT22;22458;45.328;9.514;2023-05-13T14:13:10;25.40;57.30
36424;DHT22;22458;45.328;9.514;2023-05-13T14:15:35;25.50;57.30
36424;DHT22;22458;45.328;9.514;2023-05-13T14:18:04;25.50;57.20
36424;DHT22;22458;45.328;9.514;2023-05-13T14:20:34;25.40;56.80
36424;DHT22;22458;45.328;9.514;2023-05-13T14:23:00;25.30;56.70
36424;DHT22;22458;45.328;9.514;2023-05-13T14:25:26;25.20;56.60
36424;DHT22;22458;45.328;9.514;2023-05-13T14:27:52;25.20;56.90
36424;DHT22;22458;45.328;9.514;2023-05-13T14:30:18;25.20;56.70
36424;DHT22;22458;45.328;9.514;2023-05-13T14:32:44;25.30;57.60
36424;DHT22;22458;45.328;9.514;2023-05-13T14:35:13;25.20;58.20
36424;DHT22;22458;45.328;9.514;2023-05-13T14:37:39;25.00;58.50
36424;DHT22;22458;45.328;9.514;2023-05-13T14:40:06;24.90;59.30
36424;DHT22;22458;45.328;9.514;2023-05-13T14:42:32;24.70;60.10
36424;DHT22;22458;45.328;9.514;2023-05-13T14:44:57;24.60;61.10
36424;DHT22;22458;45.328;9.514;2023-05-13T14:47:23;24.40;61.40
36424;DHT22;22458;45.328;9.514;2023-05-13T14:49:49;24.20;62.40
36424;DHT22;22458;45.328;9.514;2023-05-13T14:52:14;24.00;63.50
36424;DHT22;22458;45.328;9.514;2023-05-13T14:54:40;23.70;64.70
36424;DHT22;22458;45.328;9.514;2023-05-13T14:57:06;23.40;65.70
36424;DHT22;22458;45.328;9.514;2023-05-13T14:59:32;23.10;66.30
36424;DHT22;22458;45.328;9.514;2023-05-13T15:02:00;22.90;66.80
36424;DHT22;22458;45.328;9.514;2023-05-13T15:04:27;22.70;67.20
36424;DHT22;22458;45.328;9.514;2023-05-13T15:06:56;22.50;67.30
36424;DHT22;22458;45.328;9.514;2023-05-13T15:09:22;22.40;67.80
36424;DHT22;22458;45.328;9.514;2023-05-13T15:11:48;22.30;68.00
36424;DHT22;22458;45.328;9.514;2023-05-13T15:14:13;22.20;68.20
36424;DHT22;22458;45.328;9.514;2023-05-13T15:16:42;22.20;68.30
36424;DHT22;22458;45.328;9.514;2023-05-13T15:19:08;22.10;68.80
36424;DHT22;22458;45.328;9.514;2023-05-13T15:21:37;22.10;68.80
36424;DHT22;22458;45.328;9.514;2023-05-13T15:24:03;22.10;68.70
36424;DHT22;22458;45.328;9.514;2023-05-13T15:26:29;22.00;68.70
36424;DHT22;22458;45.328;9.514;2023-05-13T15:28:55;22.00;68.60
36424;DHT22;22458;45.328;9.514;2023-05-13T15:31:20;22.00;68.50
36424;DHT22;22458;45.328;9.514;2023-05-13T15:33:46;22.00;68.70
36424;DHT22;22458;45.328;9.514;2023-05-13T15:36:12;22.00;68.60
36424;DHT22;22458;45.328;9.514;2023-05-13T15:38:38;22.00;68.40
36424;DHT22;22458;45.328;9.514;2023-05-13T15:41:03;22.10;68.30
36424;DHT22;22458;45.328;9.514;2023-05-13T15:43:29;22.10;68.20
36424;DHT22;22458;45.328;9.514;2023-05-13T15:45:55;22.10;68.30
36424;DHT22;22458;45.328;9.514;2023-05-13T15:48:21;22.20;68.20
36424;DHT22;22458;45.328;9.514;2023-05-13T15:50:46;22.20;68.20